Time;durP1;ratioP1;P1;durP2;ratioP2;P2;SDS_P1;SDS_P2;PMS_P1;PMS_P2;Temp;Humidity;BMP_temperature;BMP_pressure;BME280_temperature;BME280_humidity;BME280_pressure;Samples;Min_cycle;Max_cycle;Signal;HPM_P1;HPM_P2
2021/11/15 00:00:11;;;;;;;1999.90;999.90;;;;;;;2.35;60.11;102447.69;4909374;28;96991;-72
2021/11/15 00:02:42;;;;;;;1999.90;999.90;;;;;;;2.29;60.16;102444.59;4928463;28;97738;-73
2021/11/15 00:05:11;;;;;;;1999.90;999.90;;;;;;;2.25;59.98;102453.00;4908485;28;97357;-74
2021/11/15 00:07:40;;;;;;;1999.90;999.90;;;;;;;2.22;60.33;102449.22;4907555;28;98750;-74
2021/11/15 00:10:09;;;;;;;1999.90;999.90;;;;;;;2.15;60.27;102448.72;4908121;28;98098;-72
2021/11/15 00:12:37;;;;;;;1999.90;999.90;;;;;;;2.10;60.78;102450.06;4904278;28;97451;-74
2021/11/15 00:15:11;;;;;;;1999.90;999.90;;;;;;;2.09;60.35;102447.31;4926283;28;99666;-70
2021/11/15 00:17:38;;;;;;;1999.90;999.90;;;;;;;2.09;60.47;102445.59;4919986;28;99330;-72
2021/11/15 00:20:07;;;;;;;1999.90;999.90;;;;;;;2.10;59.95;102441.25;4911253;28;96917;-71
2021/11/15 00:22:35;;;;;;;1999.90;999.90;;;;;;;2.11;60.60;102440.44;4905433;28;97033;-71
2021/11/15 00:25:04;;;;;;;1999.90;999.90;;;;;;;2.12;60.77;102437.06;4913635;28;97976;-71
2021/11/15 00:27:33;;;;;;;1999.90;999.90;;;;;;;2.10;59.72;102438.63;4920758;28;100775;-71
2021/11/15 00:30:01;;;;;;;1999.90;999.90;;;;;;;2.09;60.21;102445.59;4920245;28;97046;-70
2021/11/15 00:32:30;;;;;;;1999.90;999.90;;;;;;;2.08;60.59;102437.56;4907893;28;96805;-71
2021/11/15 00:34:58;;;;;;;1999.90;999.90;;;;;;;2.10;60.26;102443.88;4908072;28;99351;-71
2021/11/15 00:37:25;;;;;;;1999.90;999.90;;;;;;;2.11;59.98;102445.69;4922740;28;97858;-72
2021/11/15 00:39:53;;;;;;;1999.90;999.90;;;;;;;2.08;59.64;102448.06;4928178;28;97945;-71
2021/11/15 00:42:21;;;;;;;1999.90;999.90;;;;;;;2.06;60.49;102447.94;4921243;28;97877;-71
2021/11/15 00:44:49;;;;;;;1999.90;999.90;;;;;;;2.05;60.58;102450.44;4908178;28;98818;-71
2021/11/15 00:47:17;;;;;;;1999.90;999.90;;;;;;;2.01;60.22;102459.78;4908024;28;100911;-71
2021/11/15 00:49:46;;;;;;;1999.90;999.90;;;;;;;1.95;59.70;102451.38;4906466;28;97771;-70
2021/11/15 00:52:14;;;;;;;1999.90;999.90;;;;;;;1.91;60.20;102464.13;4910380;28;97398;-69
2021/11/15 00:54:42;;;;;;;1999.90;999.90;;;;;;;1.98;59.87;102456.88;4920872;28;98500;-72
2021/11/15 00:57:10;;;;;;;1999.90;999.90;;;;;;;2.00;60.59;102460.56;4922642;28;99380;-70
2021/11/15 00:59:38;;;;;;;1999.90;999.90;;;;;;;2.00;60.29;102457.94;4910385;28;96909;-72
2021/11/15 01:02:06;;;;;;;1999.90;999.90;;;;;;;2.04;59.69;102464.34;4908269;28;97497;-71
2021/11/15 01:04:34;;;;;;;1999.90;999.90;;;;;;;2.05;60.16;102461.84;4920947;28;101290;-70
2021/11/15 01:07:03;;;;;;;1999.90;999.90;;;;;;;2.05;59.54;102461.84;4912154;28;97633;-71
2021/11/15 01:09:31;;;;;;;1999.90;999.90;;;;;;;2.07;59.10;102468.13;4909491;28;98138;-71
2021/11/15 01:12:10;;;;;;;1999.90;999.90;;;;;;;2.09;59.75;102463.97;4907689;28;98125;-71
2021/11/15 01:14:38;;;;;;;1999.90;999.90;;;;;;;2.09;59.53;102458.72;4906974;28;101394;-71
2021/11/15 01:17:06;;;;;;;1999.90;999.90;;;;;;;2.09;59.21;102461.34;4914769;28;98208;-69
2021/11/15 01:19:33;;;;;;;1999.90;999.90;;;;;;;2.09;59.45;102463.06;4906812;28;97592;-70
2021/11/15 01:22:01;;;;;;;1999.90;999.90;;;;;;;2.10;59.50;102464.88;4906934;28;97857;-71
2021/11/15 01:24:31;;;;;;;1999.90;999.90;;;;;;;2.07;59.81;102459.38;4905441;28;99048;-71
2021/11/15 01:26:58;;;;;;;1999.90;999.90;;;;;;;2.06;59.23;102461.06;4905193;28;98749;-74
2021/11/15 01:29:26;;;;;;;1999.90;999.90;;;;;;;2.05;59.42;102464.47;4903864;28;97649;-71
2021/11/15 01:31:56;;;;;;;1999.90;999.90;;;;;;;2.00;59.58;102462.25;4906090;28;96863;-75
2021/11/15 01:34:25;;;;;;;1999.90;999.90;;;;;;;1.99;59.23;102456.09;4906559;28;99328;-70
2021/11/15 01:36:53;;;;;;;1999.90;999.90;;;;;;;1.95;59.60;102456.63;4917529;28;101175;-71
2021/11/15 01:39:22;;;;;;;1999.90;999.90;;;;;;;1.94;60.34;102451.28;4905391;28;97224;-71
2021/11/15 01:41:52;;;;;;;1999.90;999.90;;;;;;;1.98;59.80;102453.38;4933867;28;96869;-72
2021/11/15 01:44:20;;;;;;;1999.90;999.90;;;;;;;1.98;59.72;102451.63;4907137;28;100002;-70
2021/11/15 01:46:49;;;;;;;1999.90;999.90;;;;;;;2.00;59.75;102451.75;4906416;28;99165;-71
2021/11/15 01:49:17;;;;;;;1999.90;999.90;;;;;;;1.96;59.08;102444.44;4905614;28;97844;-71
2021/11/15 01:51:45;;;;;;;1999.90;999.90;;;;;;;1.95;60.14;102442.59;4907824;28;97793;-72
2021/11/15 01:54:12;;;;;;;1999.90;999.90;;;;;;;1.95;59.39;102446.13;4904041;28;97629;-71
2021/11/15 01:56:41;;;;;;;1999.90;999.90;;;;;;;1.96;59.84;102440.09;4907240;28;98846;-74
2021/11/15 01:59:10;;;;;;;1999.90;999.90;;;;;;;1.96;59.77;102445.34;4905343;28;98802;-71
2021/11/15 02:01:38;;;;;;;1999.90;999.90;;;;;;;1.95;59.77;102433.00;4918689;28;96883;-72
2021/11/15 02:04:06;;;;;;;1999.90;999.90;;;;;;;1.97;59.20;102441.00;4901750;28;98870;-73
2021/11/15 02:06:34;;;;;;;1999.90;999.90;;;;;;;1.98;59.73;102441.13;4920706;28;100923;-74
2021/11/15 02:09:02;;;;;;;1999.90;999.90;;;;;;;1.94;59.90;102441.69;4908765;28;96815;-71
2021/11/15 02:11:29;;;;;;;1999.90;999.90;;;;;;;1.93;59.81;102439.84;4909634;28;97236;-71
2021/11/15 02:13:57;;;;;;;1999.90;999.90;;;;;;;1.94;59.51;102433.81;4907950;28;96860;-70
2021/11/15 02:16:26;;;;;;;1999.90;999.90;;;;;;;1.97;59.39;102436.69;4908228;28;98656;-71
2021/11/15 02:18:55;;;;;;;1999.90;999.90;;;;;;;1.99;59.19;102429.84;4905369;28;97057;-73
2021/11/15 02:21:24;;;;;;;1999.90;999.90;;;;;;;1.99;59.10;102432.47;4905577;28;98036;-73
2021/11/15 02:23:53;;;;;;;1999.90;999.90;;;;;;;2.02;59.45;102429.16;4918754;28;97693;-73
2021/11/15 02:26:22;;;;;;;1999.90;999.90;;;;;;;1.91;59.48;102428.28;4911008;28;98926;-73
2021/11/15 02:28:53;;;;;;;1999.90;999.90;;;;;;;1.91;59.97;102430.91;4907667;28;97640;-73
2021/11/15 02:31:23;;;;;;;1999.90;999.90;;;;;;;1.93;59.45;102431.97;4910028;28;97837;-73
2021/11/15 02:33:52;;;;;;;1999.90;999.90;;;;;;;1.90;60.15;102429.09;4907233;28;98669;-74
2021/11/15 02:36:21;;;;;;;1999.90;999.90;;;;;;;1.90;60.12;102429.09;4907359;28;98962;-74
2021/11/15 02:38:51;;;;;;;1999.90;999.90;;;;;;;1.89;59.47;102434.22;4912784;28;97207;-74
2021/11/15 02:41:19;;;;;;;1999.90;999.90;;;;;;;1.86;59.80;102427.00;4912312;28;97983;-75
2021/11/15 02:43:48;;;;;;;1999.90;999.90;;;;;;;1.85;59.81;102424.28;4927200;28;97995;-73
2021/11/15 02:46:15;;;;;;;1999.90;999.90;;;;;;;1.87;60.27;102431.47;4913488;28;97583;-72
2021/11/15 02:48:44;;;;;;;1999.90;999.90;;;;;;;1.90;59.60;102423.84;4895353;28;97262;-72
2021/11/15 02:51:13;;;;;;;1999.90;999.90;;;;;;;1.91;59.17;102428.28;4915059;28;97155;-73
2021/11/15 02:53:41;;;;;;;1999.90;999.90;;;;;;;1.92;59.37;102422.28;4929739;28;98227;-72
2021/11/15 02:56:10;;;;;;;1999.90;999.90;;;;;;;1.92;60.03;102427.53;4924611;28;99368;-71
2021/11/15 02:58:39;;;;;;;1999.90;999.90;;;;;;;1.95;59.57;102429.47;4910960;28;98950;-72
2021/11/15 03:01:09;;;;;;;1999.90;999.90;;;;;;;1.97;59.58;102431.44;4915072;28;98179;-71
2021/11/15 03:03:37;;;;;;;1999.90;999.90;;;;;;;1.98;59.50;102428.00;4911121;28;98669;-71
2021/11/15 03:06:05;;;;;;;1999.90;999.90;;;;;;;1.99;59.25;102429.84;4908615;28;101191;-73
2021/11/15 03:08:34;;;;;;;1999.90;999.90;;;;;;;2.00;59.14;102423.78;4907661;28;97291;-73
2021/11/15 03:11:05;;;;;;;1999.90;999.90;;;;;;;2.00;59.55;102420.25;4910136;28;97082;-72
2021/11/15 03:13:36;;;;;;;1999.90;999.90;;;;;;;1.98;59.46;102422.75;4913261;28;97730;-72
2021/11/15 03:16:04;;;;;;;1999.90;999.90;;;;;;;1.99;59.66;102418.44;4912582;28;101496;-72
2021/11/15 03:18:34;;;;;;;1999.90;999.90;;;;;;;1.99;59.57;102418.44;4923512;28;97175;-72
2021/11/15 03:21:05;;;;;;;1999.90;999.90;;;;;;;1.99;59.81;102411.47;4912505;28;97339;-73
2021/11/15 03:23:36;;;;;;;1999.90;999.90;;;;;;;1.98;59.54;102412.25;4912769;28;99402;-72
2021/11/15 03:26:04;;;;;;;1999.90;999.90;;;;;;;1.98;59.68;102412.25;4914333;28;98676;-71
2021/11/15 03:28:37;;;;;;;1999.90;999.90;;;;;;;1.98;59.48;102416.59;4909044;28;97356;-73
2021/11/15 03:31:07;;;;;;;1999.90;999.90;;;;;;;1.95;59.53;102406.75;4909281;28;97622;-72
2021/11/15 03:33:37;;;;;;;1999.90;999.90;;;;;;;1.94;59.58;102407.56;4911833;28;98632;-72
2021/11/15 03:36:06;;;;;;;1999.90;999.90;;;;;;;1.94;59.46;102404.03;4909897;28;98017;-72
2021/11/15 03:38:34;;;;;;;1999.90;999.90;;;;;;;1.95;59.35;102409.38;4908891;28;97818;-73
2021/11/15 03:41:03;;;;;;;1999.90;999.90;;;;;;;1.96;59.36;102405.94;4911181;28;97579;-72
2021/11/15 03:43:31;;;;;;;1999.90;999.90;;;;;;;1.93;59.05;102410.97;4915954;28;99790;-73
2021/11/15 03:46:01;;;;;;;1999.90;999.90;;;;;;;1.87;59.51;102407.84;4914068;28;98851;-73
2021/11/15 03:48:29;;;;;;;1999.90;999.90;;;;;;;1.84;59.66;102401.41;4915930;28;97357;-71
2021/11/15 03:50:57;;;;;;;1999.90;999.90;;;;;;;1.83;59.91;102411.03;4917065;28;97441;-73
2021/11/15 03:53:26;;;;;;;1999.90;999.90;;;;;;;1.83;59.33;102407.47;4908332;28;97648;-73
2021/11/15 03:55:54;;;;;;;1999.90;999.90;;;;;;;1.79;59.87;102403.69;4908055;28;101049;-72
2021/11/15 03:58:22;;;;;;;1999.90;999.90;;;;;;;1.77;59.98;102402.63;4913990;28;97695;-73
2021/11/15 04:00:51;;;;;;;1999.90;999.90;;;;;;;1.77;60.29;102404.34;4923759;28;96820;-70
2021/11/15 04:03:29;;;;;;;1999.90;999.90;;;;;;;1.75;59.31;102405.91;4907581;28;99715;-70
2021/11/15 04:06:00;;;;;;;1999.90;999.90;;;;;;;1.75;59.28;102404.22;4912011;28;98205;-72
2021/11/15 04:08:29;;;;;;;1999.90;999.90;;;;;;;1.73;59.35;102397.91;4906017;28;97887;-71
2021/11/15 04:10:57;;;;;;;1999.90;999.90;;;;;;;1.73;59.84;102397.91;4909873;28;96715;-71
2021/11/15 04:13:27;;;;;;;1999.90;999.90;;;;;;;1.75;60.02;102390.16;4910043;28;97780;-71
2021/11/15 04:15:57;;;;;;;1999.90;999.90;;;;;;;1.78;59.99;102396.59;4913722;28;97632;-71
2021/11/15 04:18:30;;;;;;;1999.90;999.90;;;;;;;1.79;59.68;102401.06;4906961;28;97830;-72
2021/11/15 04:20:58;;;;;;;1999.90;999.90;;;;;;;1.81;59.39;102391.59;4907493;28;97238;-72
2021/11/15 04:23:27;;;;;;;1999.90;999.90;;;;;;;1.81;59.35;102401.19;4921214;28;100394;-72
2021/11/15 04:25:55;;;;;;;1999.90;999.90;;;;;;;1.80;59.51;102399.31;4906460;28;98064;-71
2021/11/15 04:28:23;;;;;;;1999.90;999.90;;;;;;;1.77;59.97;102389.53;4923208;28;96810;-72
2021/11/15 04:30:50;;;;;;;1999.90;999.90;;;;;;;1.73;59.35;102390.06;4908128;28;97021;-72
2021/11/15 04:33:18;;;;;;;1999.90;999.90;;;;;;;1.73;59.53;102403.16;4909419;28;97687;-71
2021/11/15 04:35:47;;;;;;;1999.90;999.90;;;;;;;1.74;59.91;102399.78;4907390;28;97491;-72
2021/11/15 04:38:15;;;;;;;1999.90;999.90;;;;;;;1.75;59.36;102391.09;4905947;28;97175;-71
2021/11/15 04:40:43;;;;;;;1999.90;999.90;;;;;;;1.78;59.97;102398.31;4906272;28;97735;-72
2021/11/15 04:43:11;;;;;;;1999.90;999.90;;;;;;;1.77;59.73;102392.13;4905947;28;98964;-72
2021/11/15 04:45:39;;;;;;;1999.90;999.90;;;;;;;1.76;59.81;102390.28;4918410;28;99240;-72
2021/11/15 04:48:06;;;;;;;1999.90;999.90;;;;;;;1.78;59.35;102391.34;4904979;28;96856;-71
2021/11/15 04:50:34;;;;;;;1999.90;999.90;;;;;;;1.77;59.20;102386.91;4908525;28;97766;-72
2021/11/15 04:53:04;;;;;;;1999.90;999.90;;;;;;;1.80;59.81;102389.75;4907945;28;97135;-70
2021/11/15 04:55:34;;;;;;;1999.90;999.90;;;;;;;1.83;59.29;102379.53;4911019;28;99043;-71
2021/11/15 04:58:02;;;;;;;1999.90;999.90;;;;;;;1.84;59.21;102385.66;4910215;28;97932;-70
2021/11/15 05:00:32;;;;;;;1999.90;999.90;;;;;;;1.85;59.56;102382.28;4907755;28;98134;-71
2021/11/15 05:03:00;;;;;;;1999.90;999.90;;;;;;;1.88;59.38;102383.44;4906346;28;97700;-72
2021/11/15 05:05:28;;;;;;;1999.90;999.90;;;;;;;1.87;59.92;102391.19;4903409;28;100587;-72
2021/11/15 05:07:56;;;;;;;1999.90;999.90;;;;;;;1.88;59.41;102382.50;4906305;28;98076;-70
2021/11/15 05:10:28;;;;;;;1999.90;999.90;;;;;;;1.89;58.83;102371.25;4906141;28;97917;-71
2021/11/15 05:12:57;;;;;;;1999.90;999.90;;;;;;;1.90;58.86;102381.84;4924190;28;97922;-72
2021/11/15 05:15:25;;;;;;;1999.90;999.90;;;;;;;1.90;59.50;102388.81;4912938;28;98907;-71
2021/11/15 05:17:53;;;;;;;1999.90;999.90;;;;;;;1.89;59.62;102382.63;4909605;28;97723;-72
2021/11/15 05:20:22;;;;;;;1999.90;999.90;;;;;;;1.92;59.19;102379.34;4915015;28;98328;-72
2021/11/15 05:22:50;;;;;;;1999.90;999.90;;;;;;;1.91;59.09;102378.41;4906654;28;99013;-71
2021/11/15 05:25:19;;;;;;;1999.90;999.90;;;;;;;1.89;59.31;102368.63;4912945;28;98858;-71
2021/11/15 05:27:49;;;;;;;1999.90;999.90;;;;;;;1.86;58.82;102378.84;4908484;28;97184;-73
2021/11/15 05:30:18;;;;;;;1999.90;999.90;;;;;;;1.85;59.55;102384.91;4918753;28;97007;-71
2021/11/15 05:32:46;;;;;;;1999.90;999.90;;;;;;;1.86;59.41;102385.00;4911387;28;98128;-72
2021/11/15 05:35:14;;;;;;;1999.90;999.90;;;;;;;1.89;59.47;102382.63;4907830;28;98446;-72
2021/11/15 05:37:42;;;;;;;1999.90;999.90;;;;;;;1.89;58.71;102380.00;4913015;28;98808;-72
2021/11/15 05:40:11;;;;;;;1999.90;999.90;;;;;;;1.90;59.44;102387.09;4905948;28;98179;-71
2021/11/15 05:42:39;;;;;;;1999.90;999.90;;;;;;;1.90;58.90;102376.59;4908056;28;99256;-71
2021/11/15 05:45:09;;;;;;;1999.90;999.90;;;;;;;1.93;59.32;102381.16;4931753;28;100073;-69
2021/11/15 05:47:37;;;;;;;1999.90;999.90;;;;;;;1.94;58.85;102378.69;4900323;28;97965;-69
2021/11/15 05:50:06;;;;;;;1999.90;999.90;;;;;;;1.91;58.86;102388.91;4915013;28;98759;-68
2021/11/15 05:52:39;;;;;;;1999.90;999.90;;;;;;;1.90;58.84;102380.94;4908479;28;97460;-68
2021/11/15 05:55:08;;;;;;;1999.90;999.90;;;;;;;1.86;59.40;102381.47;4906539;28;98023;-71
2021/11/15 05:57:35;;;;;;;1999.90;999.90;;;;;;;1.86;58.74;102379.75;4905667;28;97905;-70
2021/11/15 06:00:11;;;;;;;1999.90;999.90;;;;;;;1.88;59.36;102386.06;4908125;28;97834;-68
2021/11/15 06:02:39;;;;;;;1999.90;999.90;;;;;;;1.91;58.78;102388.00;4907430;28;98851;-68
2021/11/15 06:05:08;;;;;;;1999.90;999.90;;;;;;;1.90;59.42;102388.81;4912650;28;97663;-67
2021/11/15 06:07:36;;;;;;;1999.90;999.90;;;;;;;1.92;58.93;102390.78;4909328;28;97910;-70
2021/11/15 06:10:05;;;;;;;1999.90;999.90;;;;;;;1.94;58.60;102386.56;4907679;28;97589;-68
2021/11/15 06:12:34;;;;;;;1999.90;999.90;;;;;;;1.95;58.82;102385.75;4918038;28;98817;-70
2021/11/15 06:15:02;;;;;;;1999.90;999.90;;;;;;;1.92;59.01;102393.41;4908378;28;98719;-69
2021/11/15 06:17:31;;;;;;;1999.90;999.90;;;;;;;1.90;59.19;102392.34;4914668;28;96836;-70
2021/11/15 06:19:59;;;;;;;1999.90;999.90;;;;;;;1.90;59.29;102397.59;4910079;28;97181;-69
2021/11/15 06:22:27;;;;;;;1999.90;999.90;;;;;;;1.90;59.44;102400.22;4918595;28;98747;-69
2021/11/15 06:24:55;;;;;;;1999.90;999.90;;;;;;;1.91;59.71;102404.66;4913820;28;97170;-70
2021/11/15 06:27:22;;;;;;;1999.90;999.90;;;;;;;1.93;59.16;102405.72;4909752;28;97284;-70
2021/11/15 06:29:50;;;;;;;1999.90;999.90;;;;;;;1.93;58.79;102407.41;4904379;28;98526;-70
2021/11/15 06:32:18;;;;;;;1999.90;999.90;;;;;;;1.95;58.67;102404.13;4906798;28;98968;-70
2021/11/15 06:34:47;;;;;;;1999.90;999.90;;;;;;;1.95;58.83;102409.38;4912468;28;97682;-69
2021/11/15 06:37:16;;;;;;;1999.90;999.90;;;;;;;1.95;59.37;102409.38;4911793;28;96843;-70
2021/11/15 06:39:43;;;;;;;1999.90;999.90;;;;;;;1.97;58.83;102409.50;4905141;28;97349;-70
2021/11/15 06:42:12;;;;;;;1999.90;999.90;;;;;;;1.96;58.78;102413.84;4911490;28;97986;-70
2021/11/15 06:44:40;;;;;;;1999.90;999.90;;;;;;;1.96;58.89;102419.06;4914308;28;98997;-70
2021/11/15 06:47:08;;;;;;;1999.90;999.90;;;;;;;1.96;58.92;102419.06;4912524;28;96816;-69
2021/11/15 06:49:37;;;;;;;1999.90;999.90;;;;;;;1.99;58.98;102415.81;4910676;28;97864;-70
2021/11/15 06:52:08;;;;;;;1999.90;999.90;;;;;;;1.99;58.85;102426.31;4924377;28;98490;-70
2021/11/15 06:54:36;;;;;;;1999.90;999.90;;;;;;;1.97;58.84;102425.25;4907450;28;97801;-69
2021/11/15 06:57:04;;;;;;;1999.90;999.90;;;;;;;1.95;59.50;102417.25;4908709;28;97416;-70
2021/11/15 06:59:32;;;;;;;1999.90;999.90;;;;;;;1.94;59.15;102430.28;4919174;28;97696;-70
2021/11/15 07:01:59;;;;;;;1999.90;999.90;;;;;;;1.91;59.19;102424.75;4902622;28;97792;-68
2021/11/15 07:04:27;;;;;;;1999.90;999.90;;;;;;;1.89;59.50;102424.63;4906764;28;97742;-70
2021/11/15 07:06:55;;;;;;;1999.90;999.90;;;;;;;1.91;59.26;102422.13;4904498;28;97390;-70
2021/11/15 07:09:24;;;;;;;1999.90;999.90;;;;;;;1.93;59.00;102426.72;4906761;28;97337;-70
2021/11/15 07:11:52;;;;;;;1999.90;999.90;;;;;;;1.95;59.26;102427.75;4906905;28;97041;-70
2021/11/15 07:14:19;;;;;;;1999.90;999.90;;;;;;;1.98;59.25;102435.00;4911355;28;98241;-69
2021/11/15 07:16:47;;;;;;;1999.90;999.90;;;;;;;1.98;58.66;102422.75;4916757;28;97172;-71
2021/11/15 07:19:15;;;;;;;1999.90;999.90;;;;;;;2.00;59.06;102425.50;4906813;28;96821;-70
2021/11/15 07:21:44;;;;;;;1999.90;999.90;;;;;;;2.00;59.16;102421.16;4906733;28;97892;-70
2021/11/15 07:24:11;;;;;;;1999.90;999.90;;;;;;;2.01;59.22;102423.03;4902409;28;100627;-69
2021/11/15 07:26:41;;;;;;;1999.90;999.90;;;;;;;2.01;58.57;102429.97;4920045;28;97779;-70
2021/11/15 07:29:09;;;;;;;1999.90;999.90;;;;;;;2.02;59.18;102435.34;4913902;28;97453;-71
2021/11/15 07:31:39;;;;;;;1999.90;999.90;;;;;;;2.05;58.50;102429.44;4909683;28;98220;-71
2021/11/15 07:34:07;;;;;;;1999.90;999.90;;;;;;;2.05;59.51;102432.97;4917630;28;98077;-71
2021/11/15 07:36:35;;;;;;;1999.90;999.90;;;;;;;2.03;59.50;102437.19;4916910;28;97828;-71
2021/11/15 07:39:06;;;;;;;1999.90;999.90;;;;;;;2.02;59.29;102427.47;4952582;22;97728;-72
2021/11/15 07:41:34;;;;;;;1999.90;999.90;;;;;;;2.02;58.75;102429.16;4943863;28;97787;-71
2021/11/15 07:44:07;;;;;;;1999.90;999.90;;;;;;;2.02;58.69;102429.16;4948581;28;99729;-75
2021/11/15 07:46:37;;;;;;;1999.90;999.90;;;;;;;2.01;58.69;102422.09;4952984;28;96640;-74
2021/11/15 07:49:04;;;;;;;1999.90;999.90;;;;;;;2.00;59.39;102430.75;4945681;28;96768;-74
2021/11/15 07:51:33;;;;;;;1999.90;999.90;;;;;;;2.00;58.52;102429.03;4928081;28;99441;-74
2021/11/15 07:54:01;;;;;;;1999.90;999.90;;;;;;;2.04;58.77;102428.50;4945171;28;100271;-74
2021/11/15 07:56:29;;;;;;;1999.90;999.90;;;;;;;2.05;58.88;102429.44;4931038;28;96900;-74
2021/11/15 07:58:56;;;;;;;1999.90;999.90;;;;;;;2.02;58.98;102429.16;4928854;28;97130;-75
2021/11/15 08:01:26;;;;;;;1999.90;999.90;;;;;;;1.98;58.94;102430.63;4929902;28;99297;-75
2021/11/15 08:03:54;;;;;;;1999.90;999.90;;;;;;;1.96;58.61;102434.84;4945337;28;100152;-75
2021/11/15 08:06:21;;;;;;;1999.90;999.90;;;;;;;1.99;58.82;102431.56;4930364;28;97128;-75
2021/11/15 08:08:49;;;;;;;1999.90;999.90;;;;;;;1.99;58.85;102435.09;4929510;28;96881;-75
2021/11/15 08:11:18;;;;;;;1999.90;999.90;;;;;;;2.00;59.09;102429.03;4959982;22;97550;-69
2021/11/15 08:13:47;;;;;;;1999.90;999.90;;;;;;;2.01;59.08;102432.59;4901408;28;99736;-71
2021/11/15 08:16:18;;;;;;;1999.90;999.90;;;;;;;1.98;58.81;102433.25;4921136;28;97325;-71
2021/11/15 08:18:47;;;;;;;1999.90;999.90;;;;;;;1.98;59.05;102441.13;4922173;28;96891;-70
2021/11/15 08:21:21;;;;;;;1999.90;999.90;;;;;;;1.97;58.56;102433.13;4921685;28;99525;-68
2021/11/15 08:23:49;;;;;;;1999.90;999.90;;;;;;;1.99;59.01;102437.72;4913216;28;97691;-72
2021/11/15 08:26:39;;;;;;;1999.90;999.90;;;;;;;1.99;58.89;102435.09;4928857;28;97180;-72
2021/11/15 08:29:20;;;;;;;1999.90;999.90;;;;;;;2.03;58.69;102439.81;4917834;28;97525;-72
2021/11/15 08:36:24;;;;;;;1999.90;999.90;;;;;;;2.03;58.45;102429.31;4910072;28;97245;-72
2021/11/15 08:38:55;;;;;;;1999.90;999.90;;;;;;;2.08;58.85;102419.16;4912092;28;97748;-71
2021/11/15 08:41:28;;;;;;;1999.90;999.90;;;;;;;2.07;58.49;102422.59;4912907;28;97039;-71
2021/11/15 08:43:57;;;;;;;1999.90;999.90;;;;;;;2.08;58.64;102417.47;4911342;28;98155;-72
2021/11/15 08:46:27;;;;;;;1999.90;999.90;;;;;;;2.09;58.61;102419.31;4913158;28;97612;-71
2021/11/15 08:49:01;;;;;;;1999.90;999.90;;;;;;;2.11;58.71;102409.88;4912810;28;97408;-72
2021/11/15 08:51:31;;;;;;;1999.90;999.90;;;;;;;2.10;58.46;102417.63;4928640;28;97089;-71
2021/11/15 08:54:00;;;;;;;1999.90;999.90;;;;;;;2.07;58.27;102423.50;4912242;28;97006;-71
2021/11/15 08:56:28;;;;;;;1999.90;999.90;;;;;;;2.06;58.70;102421.69;4912674;28;98879;-72
2021/11/15 08:59:17;;;;;;;1999.90;999.90;;;;;;;2.08;59.01;102419.16;4912349;28;97190;-72
2021/11/15 09:01:46;;;;;;;1999.90;999.90;;;;;;;2.09;59.15;102411.44;4905890;28;99449;-71
2021/11/15 09:04:15;;;;;;;1999.90;999.90;;;;;;;2.10;58.01;102421.19;4910133;28;97680;-71
2021/11/15 09:06:45;;;;;;;1999.90;999.90;;;;;;;2.08;58.87;102422.72;4910625;28;99335;-70
2021/11/15 09:09:15;;;;;;;1999.90;999.90;;;;;;;2.08;58.57;102420.09;4938356;22;97549;-71
2021/11/15 09:11:44;;;;;;;1999.90;999.90;;;;;;;2.07;58.51;102433.09;4908584;28;97299;-71
2021/11/15 09:14:13;;;;;;;1999.90;999.90;;;;;;;2.07;58.80;102436.63;4916180;28;99700;-71
2021/11/15 09:16:41;;;;;;;1999.90;999.90;;;;;;;2.07;58.52;102430.47;4931132;28;99442;-71
2021/11/15 09:19:10;;;;;;;1999.90;999.90;;;;;;;2.08;59.03;102429.69;4915889;28;97405;-72
2021/11/15 09:21:38;;;;;;;1999.90;999.90;;;;;;;2.09;58.73;102429.81;4919467;28;97818;-72
2021/11/15 09:24:08;;;;;;;1999.90;999.90;;;;;;;2.09;59.03;102429.81;4922086;28;96884;-71
2021/11/15 09:26:37;;;;;;;1999.90;999.90;;;;;;;2.10;58.92;102426.44;4937769;28;98633;-70
2021/11/15 09:29:07;;;;;;;1999.90;999.90;;;;;;;2.08;58.88;102433.22;4922570;28;97956;-72
2021/11/15 09:31:36;;;;;;;1999.90;999.90;;;;;;;2.08;58.55;102427.97;4917263;28;97249;-71
2021/11/15 09:34:04;;;;;;;1999.90;999.90;;;;;;;2.08;58.69;102425.34;4915975;28;99198;-71
2021/11/15 09:36:32;;;;;;;1999.90;999.90;;;;;;;2.05;58.66;102425.06;4917555;28;99525;-71
2021/11/15 09:39:01;;;;;;;1999.90;999.90;;;;;;;2.06;58.61;102426.94;4916689;28;98120;-71
2021/11/15 09:41:34;;;;;;;1999.90;999.90;;;;;;;2.08;58.45;102429.69;4933821;22;102003;-75
2021/11/15 09:44:03;;;;;;;1999.90;999.90;;;;;;;2.10;58.81;102430.75;4908586;28;97797;-75
2021/11/15 09:46:34;;;;;;;1999.90;999.90;;;;;;;2.08;58.74;102435.84;4908201;28;99938;-74
2021/11/15 09:49:10;;;;;;;1999.90;999.90;;;;;;;2.08;58.33;102440.19;4908862;28;97742;-72
2021/11/15 09:51:39;;;;;;;1999.90;999.90;;;;;;;2.06;58.91;102434.81;4922956;28;97463;-77
2021/11/15 09:54:07;;;;;;;1999.90;999.90;;;;;;;2.06;58.48;102433.88;4904352;28;100592;-74
2021/11/15 09:56:37;;;;;;;1999.90;999.90;;;;;;;2.03;58.68;102442.44;4895771;28;99077;-74
2021/11/15 09:59:10;;;;;;;1999.90;999.90;;;;;;;2.02;58.59;102434.41;4888169;28;97213;-74
2021/11/15 10:01:40;;;;;;;1999.90;999.90;;;;;;;2.01;58.58;102438.78;4894569;28;97662;-74
2021/11/15 10:04:08;;;;;;;1999.90;999.90;;;;;;;2.01;58.42;102437.84;4892080;28;100511;-75
2021/11/15 10:06:37;;;;;;;1999.90;999.90;;;;;;;2.01;58.96;102430.91;4893285;28;98936;-76
2021/11/15 10:09:05;;;;;;;1999.90;999.90;;;;;;;2.02;58.96;102440.59;4888623;28;97684;-75
2021/11/15 10:11:44;;;;;;;1999.90;999.90;;;;;;;2.02;58.75;102427.47;4888944;28;97517;-75
2021/11/15 10:14:13;;;;;;;1999.90;999.90;;;;;;;2.03;58.34;102420.50;4893855;28;98064;-75
2021/11/15 10:16:41;;;;;;;1999.90;999.90;;;;;;;2.00;58.33;102422.88;4894781;28;99131;-75
2021/11/15 10:19:13;;;;;;;1999.90;999.90;;;;;;;1.98;58.67;102421.88;4895552;28;96798;-75
2021/11/15 10:21:42;;;;;;;1999.90;999.90;;;;;;;1.96;58.41;102419.06;4907253;28;97914;-74
2021/11/15 10:24:12;;;;;;;1999.90;999.90;;;;;;;1.98;59.36;102424.47;4907820;28;99384;-74
2021/11/15 10:26:46;;;;;;;1999.90;999.90;;;;;;;1.96;58.57;102418.19;4905373;28;98961;-74
2021/11/15 10:29:16;;;;;;;1999.90;999.90;;;;;;;1.97;58.30;102417.38;4896114;28;97677;-74
2021/11/15 10:31:48;;;;;;;1999.90;999.90;;;;;;;1.95;58.46;102406.75;4907689;28;97107;-74
2021/11/15 10:34:25;;;;;;;1999.90;999.90;;;;;;;1.96;58.52;102416.47;4893704;28;99447;-74
2021/11/15 10:37:09;;;;;;;1999.90;999.90;;;;;;;1.95;58.75;102417.25;4890314;28;99888;-75
2021/11/15 10:39:45;;;;;;;1999.90;999.90;;;;;;;1.96;59.11;102420.81;4907407;28;96792;-73
2021/11/15 10:42:18;;;;;;;1999.90;999.90;;;;;;;2.00;59.17;102428.13;4900205;28;97073;-74
2021/11/15 10:44:52;;;;;;;1999.90;999.90;;;;;;;2.03;58.41;102418.81;4899685;28;98733;-75
2021/11/15 10:47:29;;;;;;;1999.90;999.90;;;;;;;2.05;58.74;102419.81;4893174;28;99626;-74
2021/11/15 10:50:11;;;;;;;1999.90;999.90;;;;;;;2.07;58.32;102426.13;4895443;28;97132;-75
2021/11/15 10:52:41;;;;;;;1999.90;999.90;;;;;;;2.08;58.30;102424.41;4891158;28;96963;-75
2021/11/15 10:55:10;;;;;;;1999.90;999.90;;;;;;;2.08;58.03;102425.34;4896487;28;97782;-75
2021/11/15 10:57:41;;;;;;;1999.90;999.90;;;;;;;2.07;58.14;102422.59;4901582;28;98780;-76
2021/11/15 11:00:26;;;;;;;1999.90;999.90;;;;;;;2.08;57.78;102413.91;4890198;28;96734;-74
2021/11/15 11:03:04;;;;;;;1999.90;999.90;;;;;;;2.07;58.07;102418.25;4910613;28;96898;-74
2021/11/15 11:05:54;;;;;;;1999.90;999.90;;;;;;;2.06;58.28;102416.44;4899438;28;99763;-77
2021/11/15 11:08:25;;;;;;;1999.90;999.90;;;;;;;2.11;57.85;102414.19;4879175;28;101002;-73